createdAt,value
2022-08-14T00:01:15.445Z,18.50
2022-08-14T00:03:55.892Z,20.10
2022-08-14T00:06:29.271Z,13.60
2022-08-14T00:09:01.935Z,14.20
2022-08-14T00:11:34.266Z,16.00
2022-08-14T00:14:06.858Z,14.40
2022-08-14T00:16:40.975Z,14.40
2022-08-14T00:19:19.325Z,14.30
2022-08-14T00:21:53.356Z,14.20
2022-08-14T00:24:28.873Z,11.20
2022-08-14T00:27:04.431Z,13.20
2022-08-14T00:29:40.341Z,18.10
2022-08-14T00:32:51.947Z,14.30
2022-08-14T00:35:07.229Z,12.70
2022-08-14T00:37:47.004Z,19.40
2022-08-14T00:40:33.334Z,12.00
2022-08-14T00:43:08.015Z,12.60
2022-08-14T00:45:41.100Z,16.20
2022-08-14T00:48:14.355Z,14.30
2022-08-14T00:51:07.680Z,11.40
2022-08-14T00:53:42.924Z,14.90
2022-08-14T00:56:15.862Z,11.70
2022-08-14T00:58:48.712Z,19.20
2022-08-14T01:01:21.067Z,11.40
2022-08-14T01:03:56.280Z,14.60
2022-08-14T01:06:30.087Z,14.90
2022-08-14T01:09:07.983Z,13.60
2022-08-14T01:11:45.204Z,16.90
2022-08-14T01:17:08.993Z,14.60
2022-08-14T01:19:59.383Z,11.00
2022-08-14T01:22:31.814Z,13.40
2022-08-14T01:27:45.190Z,10.20
2022-08-14T01:30:28.582Z,13.00
2022-08-14T01:33:02.411Z,13.70
2022-08-14T01:36:05.075Z,17.00
2022-08-14T01:38:28.281Z,11.90
2022-08-14T01:41:01.875Z,13.50
2022-08-14T01:43:56.408Z,12.90
2022-08-14T01:46:33.474Z,10.60
2022-08-14T01:49:11.390Z,14.70
2022-08-14T01:51:46.192Z,13.40
2022-08-14T01:54:22.161Z,13.10
2022-08-14T01:56:56.990Z,15.00
2022-08-14T01:59:38.004Z,11.80
2022-08-14T02:02:19.008Z,13.50
2022-08-14T02:04:56.882Z,14.40
2022-08-14T02:07:44.830Z,10.00
2022-08-14T02:10:29.156Z,11.70
2022-08-14T02:13:08.557Z,13.70
2022-08-14T02:15:43.869Z,14.20
2022-08-14T02:18:15.840Z,11.10
2022-08-14T02:20:48.754Z,10.70
2022-08-14T02:23:28.841Z,10.10
2022-08-14T02:26:29.154Z,11.40
2022-08-14T02:29:04.206Z,10.00
2022-08-14T02:31:44.169Z,12.40
2022-08-14T02:34:26.127Z,12.40
2022-08-14T02:37:06.649Z,14.00
2022-08-14T02:39:42.407Z,15.70
2022-08-14T02:42:16.864Z,13.60
2022-08-14T02:44:55.659Z,11.00
2022-08-14T02:47:28.371Z,13.80
2022-08-14T02:50:01.118Z,16.20
2022-08-14T02:52:57.656Z,12.80
2022-08-14T02:55:27.782Z,13.00
2022-08-14T02:58:03.533Z,10.10
2022-08-14T03:00:40.086Z,13.40
2022-08-14T03:03:12.879Z,13.10
2022-08-14T03:05:45.112Z,10.50
2022-08-14T03:08:18.951Z,15.80
2022-08-14T03:10:51.632Z,15.30
2022-08-14T03:13:24.257Z,10.00
2022-08-14T03:15:58.409Z,12.60
2022-08-14T03:18:32.816Z,12.10
2022-08-14T03:21:07.843Z,10.70
2022-08-14T03:23:40.440Z,12.90
2022-08-14T03:26:18.320Z,12.20
2022-08-14T03:28:52.643Z,14.60
2022-08-14T03:31:26.107Z,10.20
2022-08-14T03:34:00.640Z,18.20
2022-08-14T03:37:38.050Z,15.10
2022-08-14T03:42:01.901Z,11.00
2022-08-14T03:45:26.684Z,14.20
2022-08-14T03:50:20.814Z,11.20
2022-08-14T03:53:00.463Z,15.20
2022-08-14T03:55:33.231Z,13.30
2022-08-14T03:58:06.806Z,14.50
2022-08-14T04:00:44.792Z,16.10
2022-08-14T04:03:24.108Z,16.60
2022-08-14T04:05:56.829Z,15.10
2022-08-14T04:08:31.747Z,13.20
2022-08-14T04:11:08.056Z,15.00
2022-08-14T04:13:44.733Z,16.30
2022-08-14T04:16:20.666Z,11.60
2022-08-14T04:18:55.983Z,12.50
2022-08-14T04:21:29.559Z,14.50
2022-08-14T04:24:13.986Z,13.80
2022-08-14T04:26:50.252Z,13.40
2022-08-14T04:29:22.282Z,13.40
2022-08-14T04:32:58.174Z,66.80
2022-08-14T04:34:52.244Z,12.50
2022-08-14T04:37:45.225Z,15.60
2022-08-14T04:40:35.441Z,17.80
2022-08-14T04:43:38.337Z,18.20
2022-08-14T04:46:56.913Z,18.10
2022-08-14T04:49:07.956Z,12.10
2022-08-14T04:51:55.503Z,13.70
2022-08-14T04:54:29.190Z,11.20
2022-08-14T04:57:01.187Z,16.40
2022-08-14T04:59:35.397Z,17.50
2022-08-14T05:02:08.239Z,15.30
2022-08-14T05:04:45.021Z,14.40
2022-08-14T05:07:17.614Z,11.20
2022-08-14T05:09:49.938Z,12.00
2022-08-14T05:13:10.683Z,16.40
2022-08-14T05:15:15.494Z,13.10
2022-08-14T05:17:53.982Z,20.40
2022-08-14T05:21:55.938Z,10.30
2022-08-14T05:23:29.398Z,14.20
2022-08-14T05:26:05.745Z,13.00
2022-08-14T05:28:38.393Z,14.40
2022-08-14T05:33:44.555Z,13.60
2022-08-14T05:36:30.271Z,14.90
2022-08-14T05:39:03.058Z,13.60
2022-08-14T05:41:48.531Z,16.30
2022-08-14T05:44:29.939Z,11.90
2022-08-14T05:47:03.010Z,18.10
2022-08-14T05:49:35.922Z,13.10
2022-08-14T05:52:10.492Z,12.40
2022-08-14T05:54:47.867Z,16.40
2022-08-14T05:57:19.911Z,10.60
2022-08-14T05:59:51.887Z,10.30
2022-08-14T06:02:25.177Z,13.00
2022-08-14T06:04:58.856Z,9.40
2022-08-14T06:07:31.013Z,10.40
2022-08-14T06:10:04.156Z,11.10
2022-08-14T06:12:55.612Z,10.00
2022-08-14T06:15:30.378Z,12.10
2022-08-14T06:18:02.977Z,12.50
2022-08-14T06:20:35.464Z,15.80
2022-08-14T06:23:08.095Z,12.80
2022-08-14T06:25:41.339Z,11.70
2022-08-14T06:28:27.016Z,12.70
2022-08-14T06:30:59.629Z,16.00
2022-08-14T06:35:01.383Z,15.50
2022-08-14T06:36:24.036Z,12.80
2022-08-14T06:38:56.818Z,13.80
2022-08-14T06:41:56.893Z,17.00
2022-08-14T06:44:21.615Z,11.90
2022-08-14T06:47:04.475Z,14.60
2022-08-14T06:49:45.127Z,12.30
2022-08-14T06:52:23.101Z,13.10
2022-08-14T06:54:57.126Z,12.30
2022-08-14T06:57:38.906Z,13.60
2022-08-14T07:00:27.301Z,11.30
2022-08-14T07:03:21.967Z,12.30
2022-08-14T07:05:55.301Z,10.20
2022-08-14T07:08:31.539Z,17.30
2022-08-14T07:11:04.573Z,11.10
2022-08-14T07:13:37.220Z,10.50
2022-08-14T07:16:13.614Z,14.10
2022-08-14T07:18:46.190Z,9.80
2022-08-14T07:21:22.977Z,9.80
2022-08-14T07:23:55.592Z,12.00
2022-08-14T07:26:31.551Z,16.20
2022-08-14T07:31:34.559Z,10.70
2022-08-14T07:34:08.389Z,11.40
2022-08-14T07:36:53.657Z,15.40
2022-08-14T07:39:34.569Z,9.50
2022-08-14T07:42:09.123Z,13.00
2022-08-14T07:44:46.263Z,14.30
2022-08-14T07:47:22.862Z,18.10
2022-08-14T07:52:30.693Z,14.00
2022-08-14T07:55:04.939Z,10.40
2022-08-14T07:57:38.376Z,13.90
2022-08-14T08:00:31.079Z,13.20
2022-08-14T08:03:04.689Z,9.70
2022-08-14T08:05:41.180Z,12.40
2022-08-14T08:08:26.911Z,19.30
2022-08-14T08:11:08.444Z,17.80
2022-08-14T08:13:54.405Z,15.20
2022-08-14T08:16:51.137Z,12.70
2022-08-14T08:19:25.527Z,9.20
2022-08-14T08:21:58.941Z,11.60
2022-08-14T08:24:37.283Z,13.40
2022-08-14T08:27:21.317Z,12.60
2022-08-14T08:30:03.746Z,8.70
2022-08-14T08:32:45.958Z,14.70
2022-08-14T08:35:24.028Z,9.40
2022-08-14T08:38:03.076Z,15.50
2022-08-14T08:41:01.230Z,13.90
2022-08-14T08:43:36.549Z,8.70
2022-08-14T08:46:21.263Z,7.20
2022-08-14T08:51:34.323Z,9.40
2022-08-14T08:54:11.937Z,18.50
2022-08-14T08:56:52.838Z,7.20
2022-08-14T08:59:31.250Z,12.60
2022-08-14T09:02:11.516Z,7.80
2022-08-14T09:04:53.670Z,9.30
2022-08-14T09:07:31.159Z,16.30
2022-08-14T09:10:08.100Z,13.30
2022-08-14T09:12:46.795Z,11.30
2022-08-14T09:15:26.051Z,10.00
2022-08-14T09:18:42.177Z,9.20
2022-08-14T09:21:48.014Z,8.60
2022-08-14T09:24:44.034Z,9.70
2022-08-14T09:27:22.722Z,9.80
2022-08-14T09:30:33.148Z,10.00
2022-08-14T09:33:32.068Z,9.10
2022-08-14T09:36:36.217Z,16.30
2022-08-14T09:39:23.101Z,9.60
2022-08-14T09:42:20.153Z,11.80
2022-08-14T09:45:22.946Z,10.90
2022-08-14T09:47:58.988Z,14.20
2022-08-14T09:50:45.974Z,8.10
2022-08-14T09:54:18.532Z,9.90
2022-08-14T09:56:30.984Z,10.80
2022-08-14T09:59:16.733Z,9.30
2022-08-14T10:01:52.714Z,7.40
2022-08-14T10:04:33.846Z,9.70
2022-08-14T10:07:12.664Z,7.80
2022-08-14T10:10:00.297Z,8.30
2022-08-14T10:12:52.888Z,9.60
2022-08-14T10:15:29.827Z,9.20
2022-08-14T10:18:17.507Z,10.50
2022-08-14T10:20:58.760Z,13.00
2022-08-14T10:23:44.515Z,8.90
2022-08-14T10:26:23.136Z,10.30
2022-08-14T10:29:19.985Z,11.10
2022-08-14T10:32:03.101Z,12.40
2022-08-14T10:35:05.291Z,13.60
2022-08-14T10:37:52.410Z,9.70
2022-08-14T10:40:38.011Z,11.60
2022-08-14T10:43:25.522Z,13.20
2022-08-14T10:46:04.130Z,18.40
2022-08-14T10:49:05.409Z,15.70
2022-08-14T10:51:41.620Z,13.60
2022-08-14T10:54:26.106Z,12.30
2022-08-14T10:57:20.001Z,10.90
2022-08-14T10:59:56.189Z,11.70
2022-08-14T11:02:44.499Z,12.70
2022-08-14T11:05:26.472Z,12.80
2022-08-14T11:08:08.950Z,11.70
2022-08-14T11:10:48.376Z,19.10
2022-08-14T11:13:23.830Z,12.50
2022-08-14T11:16:00.546Z,14.70
2022-08-14T11:18:40.136Z,16.10
2022-08-14T11:21:21.309Z,14.10
2022-08-14T11:23:57.155Z,13.50
2022-08-14T11:26:31.542Z,15.10
2022-08-14T11:29:08.720Z,12.60
2022-08-14T11:31:41.579Z,16.30
2022-08-14T11:34:31.904Z,16.50
2022-08-14T11:37:18.674Z,11.50
2022-08-14T11:39:56.008Z,11.60
2022-08-14T11:42:57.958Z,14.40
2022-08-14T11:45:25.978Z,13.70
2022-08-14T11:48:13.015Z,17.10
2022-08-14T11:50:56.153Z,14.60
2022-08-14T11:56:06.348Z,16.70
2022-08-14T11:58:40.220Z,13.40
2022-08-14T12:01:15.869Z,26.40
2022-08-14T12:03:52.105Z,15.90
2022-08-14T12:06:39.334Z,16.80
2022-08-14T12:09:14.945Z,11.90
2022-08-14T12:11:51.495Z,13.30
2022-08-14T12:14:31.009Z,12.30
2022-08-14T12:17:13.314Z,12.90
2022-08-14T12:19:56.502Z,12.30
2022-08-14T12:22:42.310Z,13.80
2022-08-14T12:25:25.164Z,12.40
2022-08-14T12:28:01.945Z,16.70
2022-08-14T12:30:39.498Z,16.20
2022-08-14T12:33:32.941Z,13.30
2022-08-14T12:36:09.941Z,15.00
2022-08-14T12:38:45.692Z,15.40
2022-08-14T12:41:21.935Z,16.00
2022-08-14T12:43:59.501Z,12.80
2022-08-14T12:46:39.764Z,12.80
2022-08-14T12:49:16.476Z,19.20
2022-08-14T12:51:59.804Z,13.70
2022-08-14T12:54:32.690Z,15.60
2022-08-14T12:57:13.586Z,16.70
2022-08-14T12:59:52.769Z,18.70
2022-08-14T13:02:29.816Z,15.60
2022-08-14T13:05:02.050Z,14.50
2022-08-14T13:07:35.471Z,16.40
2022-08-14T13:10:51.128Z,15.90
2022-08-14T13:13:15.623Z,16.00
2022-08-14T13:15:57.176Z,17.00
2022-08-14T13:18:32.252Z,19.50
2022-08-14T13:21:06.016Z,16.70
2022-08-14T13:23:38.798Z,18.40
2022-08-14T13:26:13.043Z,16.80
2022-08-14T13:29:02.754Z,15.30
2022-08-14T13:31:37.019Z,19.60
2022-08-14T13:34:10.719Z,16.10
2022-08-14T13:36:54.886Z,16.30
2022-08-14T13:39:36.446Z,17.20
2022-08-14T13:42:14.872Z,20.10
2022-08-14T13:44:50.345Z,18.10
2022-08-14T13:47:24.953Z,15.50
2022-08-14T13:50:02.932Z,18.30
2022-08-14T13:52:51.957Z,14.50
2022-08-14T13:55:29.551Z,20.40
2022-08-14T13:58:05.228Z,17.00
2022-08-14T14:00:52.787Z,18.40
2022-08-14T14:03:31.820Z,17.80
2022-08-14T14:06:05.529Z,22.70
2022-08-14T14:08:45.775Z,15.80
2022-08-14T14:11:23.941Z,20.20
2022-08-14T14:13:57.488Z,20.50
2022-08-14T14:16:30.895Z,24.70
2022-08-14T14:19:09.837Z,18.70
2022-08-14T14:21:42.210Z,17.30
2022-08-14T14:24:16.156Z,16.90
2022-08-14T14:26:51.458Z,15.40
2022-08-14T14:29:26.734Z,17.40
2022-08-14T14:32:02.411Z,17.50
2022-08-14T14:34:37.716Z,15.10
2022-08-14T14:37:14.475Z,16.60
2022-08-14T14:40:53.667Z,16.40
2022-08-14T14:42:53.232Z,16.40
2022-08-14T14:45:26.822Z,50.70
2022-08-14T14:48:00.453Z,35.00
2022-08-14T14:50:33.345Z,22.20
2022-08-14T14:53:12.759Z,19.40
2022-08-14T14:56:08.703Z,16.50
2022-08-14T14:58:39.025Z,18.30
2022-08-14T15:01:12.266Z,15.50
2022-08-14T15:03:46.210Z,16.50
2022-08-14T15:06:19.410Z,16.00
2022-08-14T15:08:56.472Z,15.60
2022-08-14T15:11:32.184Z,11.50
2022-08-14T15:14:55.460Z,13.60
2022-08-14T15:16:59.190Z,12.10
2022-08-14T15:19:32.383Z,12.30
2022-08-14T15:22:05.088Z,12.10
2022-08-14T15:24:39.888Z,13.60
2022-08-14T15:27:12.168Z,12.60
2022-08-14T15:29:47.289Z,12.40
2022-08-14T15:32:23.158Z,12.90
2022-08-14T15:34:55.745Z,16.70
2022-08-14T15:37:33.689Z,18.40
2022-08-14T15:40:16.289Z,16.60
2022-08-14T15:42:54.679Z,12.00
2022-08-14T15:45:27.803Z,10.90
2022-08-14T15:48:00.552Z,12.00
2022-08-14T15:50:32.313Z,17.90
2022-08-14T15:53:04.564Z,14.00
2022-08-14T15:58:11.404Z,11.60
2022-08-14T16:01:04.173Z,13.70
2022-08-14T16:03:42.290Z,12.30
2022-08-14T16:06:18.820Z,11.80
2022-08-14T16:08:58.900Z,11.80
2022-08-14T16:14:06.901Z,15.90
2022-08-14T16:16:51.475Z,13.60
2022-08-14T16:19:32.925Z,16.60
2022-08-14T16:22:58.322Z,24.40
2022-08-14T16:25:15.578Z,15.70
2022-08-14T16:27:51.089Z,15.30
2022-08-14T16:30:27.596Z,12.80
2022-08-14T16:33:01.321Z,17.60
2022-08-14T16:35:43.409Z,12.00
2022-08-14T16:38:46.223Z,12.40
2022-08-14T16:41:30.136Z,12.20
2022-08-14T16:44:05.834Z,12.20
2022-08-14T16:46:46.496Z,13.30
2022-08-14T16:49:20.012Z,10.00
2022-08-14T16:51:52.870Z,11.00
2022-08-14T16:54:34.791Z,14.20
2022-08-14T16:57:22.480Z,12.20
2022-08-14T16:59:57.687Z,13.10
2022-08-14T17:02:41.794Z,11.70
2022-08-14T17:05:21.825Z,11.00
2022-08-14T17:08:41.735Z,12.20
2022-08-14T17:11:10.974Z,12.10
2022-08-14T17:13:57.831Z,11.90
2022-08-14T17:16:37.467Z,14.40
2022-08-14T17:19:14.212Z,12.30
2022-08-14T17:21:52.266Z,13.90
2022-08-14T17:24:57.701Z,12.80
2022-08-14T17:27:22.186Z,14.10
2022-08-14T17:29:58.798Z,13.10
2022-08-14T17:32:55.825Z,14.90
2022-08-14T17:35:57.781Z,13.00
2022-08-14T17:38:38.193Z,13.40
2022-08-14T17:41:23.519Z,15.40
2022-08-14T17:43:56.556Z,14.00
2022-08-14T17:46:43.557Z,12.90
2022-08-14T17:49:18.300Z,12.10
2022-08-14T17:52:03.774Z,12.50
2022-08-14T17:54:44.540Z,12.90
2022-08-14T17:57:18.528Z,13.20
2022-08-14T17:59:51.442Z,11.90
2022-08-14T18:02:31.440Z,17.50
2022-08-14T18:05:03.622Z,15.20
2022-08-14T18:07:59.341Z,13.30
2022-08-14T18:10:55.306Z,14.10
2022-08-14T18:13:51.033Z,16.00
2022-08-14T18:18:54.864Z,15.00
2022-08-14T18:21:41.988Z,16.40
2022-08-14T18:24:29.716Z,21.10
2022-08-14T18:27:09.363Z,13.70
2022-08-14T18:29:55.358Z,17.80
2022-08-14T18:32:47.681Z,12.90
2022-08-14T18:35:45.887Z,16.90
2022-08-14T18:38:55.120Z,14.10
2022-08-14T18:41:37.154Z,15.50
2022-08-14T18:44:11.347Z,14.50
2022-08-14T18:47:18.433Z,16.10
2022-08-14T18:50:26.945Z,14.50
2022-08-14T18:53:10.695Z,13.40
2022-08-14T18:55:53.025Z,13.60
2022-08-14T18:58:31.346Z,17.00
2022-08-14T19:01:06.595Z,13.60
2022-08-14T19:03:56.196Z,14.90
2022-08-14T19:06:56.267Z,16.60
2022-08-14T19:09:57.978Z,16.30
2022-08-14T19:12:58.155Z,21.00
2022-08-14T19:15:34.345Z,17.90
2022-08-14T19:18:28.056Z,15.90
2022-08-14T19:21:02.478Z,14.60
2022-08-14T19:24:27.577Z,20.50
2022-08-14T19:27:19.537Z,16.00
2022-08-14T19:30:25.275Z,17.10
2022-08-14T19:33:03.734Z,16.00
2022-08-14T19:35:59.829Z,16.30
2022-08-14T19:38:54.939Z,16.80
2022-08-14T19:41:33.792Z,18.20
2022-08-14T19:44:12.052Z,21.20
2022-08-14T19:47:02.841Z,16.70
2022-08-14T19:50:09.075Z,16.80
2022-08-14T19:52:39.686Z,21.90
2022-08-14T19:55:19.396Z,15.50
2022-08-14T19:57:58.814Z,17.30
2022-08-14T20:00:31.954Z,17.90
2022-08-14T20:03:10.533Z,17.10
2022-08-14T20:05:45.501Z,18.10
2022-08-14T20:10:58.535Z,18.60
2022-08-14T20:12:02.327Z,20.80
2022-08-14T20:14:28.251Z,17.20
2022-08-14T20:17:06.064Z,18.60
2022-08-14T20:19:41.676Z,21.00
2022-08-14T20:22:36.201Z,17.10
2022-08-14T20:25:23.156Z,18.70
2022-08-14T20:27:59.243Z,16.60
2022-08-14T20:30:33.551Z,21.30
2022-08-14T20:33:11.021Z,17.60
2022-08-14T20:35:51.507Z,18.70
2022-08-14T20:38:32.421Z,16.90
2022-08-14T20:41:12.314Z,20.70
2022-08-14T20:44:06.463Z,18.40
2022-08-14T20:46:42.372Z,21.10
2022-08-14T20:49:18.861Z,19.00
2022-08-14T20:51:59.565Z,27.40
2022-08-14T20:54:36.557Z,19.10
2022-08-14T20:57:22.453Z,20.30
2022-08-14T20:59:56.642Z,17.30
2022-08-14T21:02:50.058Z,23.80
2022-08-14T21:05:33.851Z,25.50
2022-08-14T21:08:22.076Z,18.70
2022-08-14T21:10:56.745Z,20.40
2022-08-14T21:14:19.893Z,20.80
2022-08-14T21:16:33.750Z,21.30
2022-08-14T21:19:08.824Z,24.80
2022-08-14T21:21:42.438Z,22.10
2022-08-14T21:24:39.254Z,22.20
2022-08-14T21:27:12.289Z,24.10
2022-08-14T21:29:53.853Z,20.40
2022-08-14T21:32:47.057Z,24.10
2022-08-14T21:35:29.647Z,23.10
2022-08-14T21:38:02.798Z,25.20
2022-08-14T21:40:41.789Z,24.10
2022-08-14T21:43:17.792Z,23.70
2022-08-14T21:45:57.635Z,25.20
2022-08-14T21:48:34.017Z,24.90
2022-08-14T21:51:55.002Z,24.30
2022-08-14T21:54:01.344Z,25.10
2022-08-14T21:56:41.020Z,22.40
2022-08-14T21:59:32.210Z,26.00
2022-08-14T22:02:08.994Z,25.70
2022-08-14T22:05:03.528Z,21.50
2022-08-14T22:07:36.779Z,24.10
2022-08-14T22:10:14.411Z,28.20
2022-08-14T22:13:00.756Z,25.80
2022-08-14T22:15:35.535Z,26.60
2022-08-14T22:18:09.957Z,23.60
2022-08-14T22:20:56.631Z,22.50
2022-08-14T22:23:28.566Z,28.20
2022-08-14T22:26:00.360Z,27.80
2022-08-14T22:28:35.362Z,27.80
2022-08-14T22:31:11.179Z,24.70
2022-08-14T22:33:57.776Z,30.20
2022-08-14T22:36:48.797Z,27.10
2022-08-14T22:40:17.666Z,28.30
2022-08-14T22:42:20.901Z,31.40
2022-08-14T22:44:56.657Z,28.30
2022-08-14T22:47:40.205Z,28.80
2022-08-14T22:50:31.938Z,30.10
2022-08-14T22:53:07.272Z,28.70
2022-08-14T22:55:42.729Z,27.20
2022-08-14T22:58:17.275Z,29.80
2022-08-14T23:00:50.939Z,29.40
2022-08-14T23:03:22.800Z,28.00
2022-08-14T23:05:54.794Z,30.50
2022-08-14T23:08:58.573Z,33.00
2022-08-14T23:11:18.239Z,26.00
2022-08-14T23:13:50.723Z,34.00
2022-08-14T23:18:54.637Z,28.40
2022-08-14T23:21:28.661Z,30.80
2022-08-14T23:24:03.060Z,27.90
2022-08-14T23:26:48.181Z,29.70
2022-08-14T23:29:22.357Z,27.80
2022-08-14T23:31:56.872Z,29.60
2022-08-14T23:34:30.985Z,31.50
2022-08-14T23:37:03.830Z,28.60
2022-08-14T23:39:36.524Z,31.50
2022-08-14T23:42:13.428Z,31.00
2022-08-14T23:44:49.697Z,31.80
2022-08-14T23:47:26.491Z,28.80
2022-08-14T23:50:03.651Z,32.40
2022-08-14T23:53:06.244Z,29.10
2022-08-14T23:55:34.803Z,29.70
2022-08-14T23:58:07.798Z,34.50
